Time;durP1;ratioP1;P1;durP2;ratioP2;P2;SDS_P1;SDS_P2;PMS_P1;PMS_P2;Temp;Humidity;BMP_temperature;BMP_pressure;BME280_temperature;BME280_humidity;BME280_pressure;Samples;Min_cycle;Max_cycle;Signal;HPM_P1;HPM_P2
2023/05/29 00:01:18;;;;;;;9.15;6.90;;;14.50;56.20;;;;;;5032403;28;20017;-72
2023/05/29 00:03:44;;;;;;;20.25;8.48;;;14.50;56.30;;;;;;5032333;28;20024;-72
2023/05/29 00:06:10;;;;;;;10.48;7.28;;;14.40;56.20;;;;;;5031947;28;20037;-72
2023/05/29 00:08:36;;;;;;;10.23;6.47;;;14.40;56.30;;;;;;5032261;28;20021;-72
2023/05/29 00:11:01;;;;;;;11.32;6.63;;;14.50;56.20;;;;;;5032448;28;20072;-72
2023/05/29 00:13:27;;;;;;;11.57;6.80;;;14.50;56.00;;;;;;5032399;28;20459;-73
2023/05/29 00:15:53;;;;;;;13.43;7.40;;;14.50;56.10;;;;;;5032366;28;20109;-72
2023/05/29 00:18:18;;;;;;;9.93;6.78;;;14.40;56.60;;;;;;5032507;28;20021;-72
2023/05/29 00:20:44;;;;;;;8.63;6.63;;;14.40;56.40;;;;;;5032356;28;20040;-72
2023/05/29 00:23:10;;;;;;;10.40;6.28;;;14.40;56.70;;;;;;5032428;28;20044;-72
2023/05/29 00:25:35;;;;;;;10.77;6.80;;;14.30;56.80;;;;;;5032374;28;20367;-72
2023/05/29 00:28:01;;;;;;;12.43;7.10;;;14.20;57.20;;;;;;5032123;28;20065;-72
2023/05/29 00:30:26;;;;;;;12.07;7.03;;;14.10;57.80;;;;;;5030859;28;20026;-72
2023/05/29 00:32:52;;;;;;;10.38;6.75;;;14.10;57.70;;;;;;5032089;28;20036;-72
2023/05/29 00:35:18;;;;;;;11.52;6.80;;;14.00;57.90;;;;;;5032104;28;20080;-72
2023/05/29 00:37:43;;;;;;;13.40;6.78;;;13.90;58.00;;;;;;5034618;28;20044;-72
2023/05/29 00:40:11;;;;;;;12.13;6.88;;;13.90;58.20;;;;;;5035829;28;20037;-72
2023/05/29 00:42:36;;;;;;;10.38;6.47;;;13.90;58.10;;;;;;5035711;28;20367;-72
2023/05/29 00:45:02;;;;;;;15.07;7.10;;;13.90;57.80;;;;;;5035665;28;20032;-72
2023/05/29 00:47:29;;;;;;;11.45;7.60;;;13.90;57.60;;;;;;5035669;28;20057;-72
2023/05/29 00:49:56;;;;;;;12.32;6.60;;;13.90;57.80;;;;;;5035459;28;20069;-72
2023/05/29 00:52:24;;;;;;;11.63;7.22;;;14.00;57.80;;;;;;5034141;28;20032;-72
2023/05/29 00:54:50;;;;;;;10.50;6.63;;;14.00;57.90;;;;;;5035525;28;20489;-72
2023/05/29 00:57:17;;;;;;;9.18;6.60;;;14.10;58.00;;;;;;5035301;28;20038;-72
2023/05/29 00:59:44;;;;;;;12.68;7.25;;;14.10;57.80;;;;;;5035325;28;20022;-72
2023/05/29 01:02:10;;;;;;;11.45;6.53;;;14.10;57.60;;;;;;5035341;28;20417;-72
2023/05/29 01:04:36;;;;;;;15.00;6.75;;;14.10;57.50;;;;;;5034906;28;20079;-72
2023/05/29 01:07:03;;;;;;;11.27;6.47;;;14.00;57.40;;;;;;5035191;28;20525;-72
2023/05/29 01:09:30;;;;;;;11.63;7.07;;;14.00;57.80;;;;;;5035023;28;20501;-72
2023/05/29 01:12:02;;;;;;;10.90;6.82;;;14.00;58.40;;;;;;5035116;28;20025;-72
2023/05/29 01:14:36;;;;;;;10.05;6.63;;;13.90;57.80;;;;;;5035076;28;20029;-73
2023/05/29 01:17:34;;;;;;;12.63;7.28;;;13.90;57.80;;;;;;5035030;28;20112;-72
2023/05/29 01:20:19;;;;;;;11.00;6.80;;;13.80;57.80;;;;;;5035175;28;20505;-72
2023/05/29 01:23:25;;;;;;;9.27;6.43;;;13.70;58.30;;;;;;5034750;28;20074;-72
2023/05/29 01:26:20;;;;;;;10.10;6.78;;;13.70;58.50;;;;;;5034961;28;20076;-72
2023/05/29 01:28:56;;;;;;;9.63;6.78;;;13.60;58.50;;;;;;5034804;28;20033;-72
2023/05/29 01:31:25;;;;;;;10.73;6.43;;;13.50;59.00;;;;;;5034489;28;20048;-73
2023/05/29 01:33:58;;;;;;;10.23;6.55;;;13.50;59.10;;;;;;5033503;28;20039;-72
2023/05/29 01:36:24;;;;;;;10.55;6.75;;;13.50;59.20;;;;;;5034670;28;20065;-72
2023/05/29 01:38:51;;;;;;;12.07;6.88;;;13.60;59.30;;;;;;5034602;28;20076;-72
2023/05/29 01:41:19;;;;;;;9.27;6.30;;;13.60;59.20;;;;;;5034613;28;20030;-72
2023/05/29 01:43:46;;;;;;;9.85;6.28;;;13.50;59.20;;;;;;5034632;28;20022;-72
2023/05/29 01:46:13;;;;;;;10.45;7.05;;;13.60;59.10;;;;;;5034505;28;20030;-72
2023/05/29 01:48:41;;;;;;;11.15;6.63;;;13.60;59.10;;;;;;5033410;28;20072;-72
2023/05/29 01:51:06;;;;;;;10.48;6.22;;;13.60;58.90;;;;;;5034411;28;20076;-72
2023/05/29 01:53:32;;;;;;;12.55;6.28;;;13.50;58.90;;;;;;5034333;28;20751;-72
2023/05/29 01:55:58;;;;;;;9.52;6.70;;;13.50;59.00;;;;;;5034240;28;20029;-72
2023/05/29 01:58:25;;;;;;;13.23;6.90;;;13.50;59.10;;;;;;5034411;28;20030;-72
2023/05/29 02:00:50;;;;;;;13.10;7.13;;;13.40;59.30;;;;;;5034288;28;20034;-72
2023/05/29 02:03:16;;;;;;;10.02;6.35;;;13.40;59.50;;;;;;5034110;28;20167;-72
2023/05/29 02:05:41;;;;;;;10.07;6.00;;;13.40;59.50;;;;;;5032816;28;20026;-72
2023/05/29 02:08:07;;;;;;;12.60;6.40;;;13.30;59.70;;;;;;5034082;28;20025;-72
2023/05/29 02:10:32;;;;;;;13.02;6.95;;;13.30;60.00;;;;;;5031902;28;20337;-72
2023/05/29 02:12:58;;;;;;;11.05;6.65;;;13.30;60.00;;;;;;5033670;28;20057;-72
2023/05/29 02:15:23;;;;;;;9.38;6.63;;;13.20;60.10;;;;;;5033762;28;20097;-72
2023/05/29 02:17:50;;;;;;;9.82;6.35;;;13.10;60.30;;;;;;5033906;28;20112;-72
2023/05/29 02:20:16;;;;;;;9.50;6.30;;;13.20;60.20;;;;;;5033896;28;20021;-72
2023/05/29 02:22:42;;;;;;;11.68;6.50;;;13.20;60.10;;;;;;5033779;28;20025;-72
2023/05/29 02:25:07;;;;;;;11.70;7.65;;;13.10;60.10;;;;;;5033677;28;20083;-73
2023/05/29 02:27:33;;;;;;;10.73;6.93;;;13.10;60.20;;;;;;5033834;28;20017;-72
2023/05/29 02:29:58;;;;;;;11.90;7.25;;;13.00;60.40;;;;;;5033694;28;20076;-72
2023/05/29 02:32:25;;;;;;;12.35;7.00;;;12.90;60.70;;;;;;5033627;28;20017;-73
2023/05/29 02:34:52;;;;;;;10.07;6.45;;;12.90;60.90;;;;;;5033618;28;20049;-72
2023/05/29 02:37:17;;;;;;;10.30;6.80;;;12.80;60.70;;;;;;5033290;28;20089;-72
2023/05/29 02:39:43;;;;;;;11.30;7.30;;;12.80;61.10;;;;;;5033315;28;20482;-72
2023/05/29 02:42:09;;;;;;;11.38;7.10;;;12.80;61.00;;;;;;5033328;28;20044;-72
2023/05/29 02:44:34;;;;;;;10.77;7.15;;;12.80;61.10;;;;;;5033422;28;20359;-72
2023/05/29 02:47:00;;;;;;;9.88;7.05;;;12.70;61.30;;;;;;5033433;28;20041;-72
2023/05/29 02:49:25;;;;;;;12.75;7.25;;;12.70;61.40;;;;;;5033025;28;20049;-72
2023/05/29 02:51:56;;;;;;;11.63;6.50;;;12.70;61.70;;;;;;5033321;28;20034;-72
2023/05/29 02:54:22;;;;;;;10.93;6.90;;;12.60;62.00;;;;;;5033162;28;20045;-72
2023/05/29 02:56:47;;;;;;;11.00;6.30;;;12.50;61.90;;;;;;5033341;28;20033;-72
2023/05/29 02:59:13;;;;;;;12.60;6.45;;;12.50;62.20;;;;;;5033023;28;20091;-72
2023/05/29 03:01:38;;;;;;;9.90;6.22;;;12.50;62.20;;;;;;5033257;28;20029;-72
2023/05/29 03:04:04;;;;;;;10.75;6.43;;;12.50;62.30;;;;;;5033175;28;20026;-72
2023/05/29 03:06:29;;;;;;;10.23;6.28;;;12.60;62.10;;;;;;5031730;28;20052;-72
2023/05/29 03:08:55;;;;;;;11.80;6.53;;;12.60;61.90;;;;;;5033162;28;20466;-73
2023/05/29 03:11:23;;;;;;;9.80;6.40;;;12.60;61.80;;;;;;5032853;28;20087;-72
2023/05/29 03:13:49;;;;;;;8.95;5.97;;;12.60;61.60;;;;;;5032867;28;20377;-72
2023/05/29 03:16:14;;;;;;;8.60;6.13;;;12.60;61.60;;;;;;5032853;28;20038;-72
2023/05/29 03:18:41;;;;;;;10.07;7.03;;;12.60;61.40;;;;;;5032876;28;20032;-72
2023/05/29 03:21:06;;;;;;;9.77;5.93;;;12.50;61.60;;;;;;5033259;28;20017;-72
2023/05/29 03:23:32;;;;;;;10.07;6.47;;;12.40;61.80;;;;;;5033274;28;20363;-72
2023/05/29 03:25:57;;;;;;;9.32;7.20;;;12.40;61.70;;;;;;5035041;28;20033;-73
2023/05/29 03:28:23;;;;;;;11.30;6.60;;;12.30;61.90;;;;;;5036431;28;20025;-72
2023/05/29 03:30:48;;;;;;;10.93;6.43;;;12.30;62.30;;;;;;5033312;28;20029;-72
2023/05/29 03:33:14;;;;;;;9.60;6.25;;;12.30;62.20;;;;;;5032719;28;20035;-72
2023/05/29 03:35:40;;;;;;;12.77;6.45;;;12.20;62.10;;;;;;5032717;28;20123;-72
2023/05/29 03:38:05;;;;;;;13.13;6.55;;;12.20;62.30;;;;;;5032798;28;20087;-72
2023/05/29 03:40:31;;;;;;;8.75;5.53;;;12.20;62.40;;;;;;5031510;28;20109;-72
2023/05/29 03:42:56;;;;;;;9.77;6.35;;;12.20;62.40;;;;;;5032668;28;20033;-72
2023/05/29 03:45:22;;;;;;;8.43;6.20;;;12.10;62.40;;;;;;5032735;28;20084;-72
2023/05/29 03:47:47;;;;;;;10.13;5.97;;;12.20;62.50;;;;;;5032598;28;20037;-72
2023/05/29 03:50:15;;;;;;;10.05;6.93;;;12.20;62.40;;;;;;5032420;28;20026;-71
2023/05/29 03:52:41;;;;;;;11.32;6.85;;;12.20;62.40;;;;;;5032633;28;20065;-72
2023/05/29 03:55:12;;;;;;;8.57;6.15;;;12.20;62.20;;;;;;5032716;28;20021;-72
2023/05/29 03:57:40;;;;;;;10.90;6.32;;;12.20;61.80;;;;;;5032521;28;20482;-72
2023/05/29 04:00:10;;;;;;;9.88;6.97;;;12.20;62.20;;;;;;5032558;28;20025;-72
2023/05/29 04:02:40;;;;;;;9.65;6.45;;;12.20;61.90;;;;;;5032521;28;20022;-72
2023/05/29 04:05:06;;;;;;;12.38;7.15;;;12.20;61.80;;;;;;5032402;28;20026;-72
2023/05/29 04:07:37;;;;;;;10.80;6.60;;;12.20;61.70;;;;;;5032318;28;20021;-72
2023/05/29 04:10:03;;;;;;;9.93;6.22;;;12.30;62.10;;;;;;5032788;28;20112;-72
2023/05/29 04:12:28;;;;;;;8.45;6.15;;;12.30;61.70;;;;;;5034636;28;20066;-72
2023/05/29 04:14:54;;;;;;;10.88;6.22;;;12.30;61.50;;;;;;5036416;28;20115;-72
2023/05/29 04:17:19;;;;;;;9.68;6.63;;;12.40;61.20;;;;;;5035783;28;20101;-72
2023/05/29 04:19:45;;;;;;;12.88;7.25;;;12.50;61.10;;;;;;5035644;28;20025;-72
2023/05/29 04:22:11;;;;;;;10.20;6.13;;;12.50;61.20;;;;;;5036093;28;20057;-72
2023/05/29 04:24:36;;;;;;;7.93;6.18;;;12.50;60.90;;;;;;5036166;28;20026;-72
2023/05/29 04:27:02;;;;;;;11.20;6.38;;;12.50;60.60;;;;;;5035864;28;20036;-73
2023/05/29 04:29:33;;;;;;;11.27;6.30;;;12.50;60.60;;;;;;5036030;28;20030;-72
2023/05/29 04:32:02;;;;;;;14.27;6.70;;;12.60;60.70;;;;;;5035861;28;20017;-72
2023/05/29 04:34:30;;;;;;;10.88;6.20;;;12.60;60.70;;;;;;5035952;28;20048;-72
2023/05/29 04:36:58;;;;;;;7.13;5.22;;;12.60;60.70;;;;;;5035765;28;20088;-72
2023/05/29 04:39:24;;;;;;;8.45;5.57;;;12.70;60.60;;;;;;5035917;28;20485;-72
2023/05/29 04:41:51;;;;;;;7.85;6.22;;;12.90;60.40;;;;;;5034374;28;20541;-72
2023/05/29 04:44:17;;;;;;;8.73;5.97;;;13.00;60.00;;;;;;5035657;28;20097;-72
2023/05/29 04:46:43;;;;;;;9.88;5.50;;;13.10;59.80;;;;;;5035690;28;20113;-72
2023/05/29 04:49:10;;;;;;;10.23;6.25;;;13.20;59.60;;;;;;5035486;28;20046;-72
2023/05/29 04:51:36;;;;;;;8.93;5.90;;;13.20;59.20;;;;;;5035747;28;20378;-72
2023/05/29 04:54:02;;;;;;;8.77;5.57;;;13.30;59.20;;;;;;5035632;28;20075;-72
2023/05/29 04:56:28;;;;;;;8.88;5.80;;;13.40;59.00;;;;;;5035390;28;20542;-72
2023/05/29 04:58:54;;;;;;;10.05;5.70;;;13.50;58.90;;;;;;5035389;28;20104;-71
2023/05/29 05:01:19;;;;;;;9.90;6.38;;;13.60;58.30;;;;;;5035586;28;20021;-72
2023/05/29 05:03:45;;;;;;;9.55;6.63;;;13.70;58.20;;;;;;5035431;28;20389;-72
2023/05/29 05:06:12;;;;;;;11.25;7.93;;;13.70;58.10;;;;;;5035369;28;20025;-72
2023/05/29 05:08:38;;;;;;;8.88;6.25;;;13.80;58.00;;;;;;5035309;28;20489;-72
2023/05/29 05:11:04;;;;;;;10.80;6.47;;;13.70;58.10;;;;;;5035259;28;20029;-72
2023/05/29 05:13:30;;;;;;;9.52;6.72;;;13.70;58.70;;;;;;5034976;28;20079;-72
2023/05/29 05:15:55;;;;;;;9.38;6.38;;;13.70;58.60;;;;;;5035082;28;20037;-71
2023/05/29 05:18:21;;;;;;;13.60;8.13;;;13.90;58.50;;;;;;5035069;28;20114;-72
2023/05/29 05:20:46;;;;;;;10.73;7.15;;;13.90;58.10;;;;;;5034966;28;20060;-72
2023/05/29 05:23:12;;;;;;;11.15;7.25;;;14.10;57.70;;;;;;5034795;28;20096;-71
2023/05/29 05:25:38;;;;;;;9.85;6.50;;;14.20;57.50;;;;;;5035085;28;20060;-72
2023/05/29 05:28:04;;;;;;;12.63;6.93;;;14.30;57.30;;;;;;5034712;28;20028;-71
2023/05/29 05:30:30;;;;;;;9.68;6.72;;;14.40;57.00;;;;;;5034809;28;20530;-72
2023/05/29 05:32:56;;;;;;;10.50;6.65;;;14.40;56.70;;;;;;5034412;28;20026;-72
2023/05/29 05:35:21;;;;;;;9.25;6.13;;;14.60;56.60;;;;;;5034538;28;20391;-72
2023/05/29 05:37:47;;;;;;;10.77;6.85;;;14.70;56.40;;;;;;5034916;28;20087;-73
2023/05/29 05:40:12;;;;;;;9.30;6.43;;;14.80;56.00;;;;;;5034717;28;20030;-72
2023/05/29 05:42:38;;;;;;;10.60;5.97;;;15.00;55.80;;;;;;5034545;28;20017;-71
2023/05/29 05:45:06;;;;;;;9.73;6.95;;;15.10;55.70;;;;;;5034891;28;20017;-72
2023/05/29 05:47:31;;;;;;;9.48;6.32;;;15.30;55.50;;;;;;5034700;28;20100;-72
2023/05/29 05:49:57;;;;;;;9.10;6.22;;;15.40;55.10;;;;;;5034443;28;20566;-72
2023/05/29 05:52:23;;;;;;;9.18;6.03;;;15.60;54.80;;;;;;5034486;28;20057;-72
2023/05/29 05:54:49;;;;;;;9.30;6.13;;;15.70;54.40;;;;;;5034563;28;20025;-71
2023/05/29 05:57:15;;;;;;;10.93;6.63;;;15.90;53.80;;;;;;5034283;28;20038;-72
2023/05/29 05:59:40;;;;;;;12.57;6.88;;;16.10;53.40;;;;;;5033080;28;20067;-72
2023/05/29 06:02:06;;;;;;;11.05;6.57;;;16.20;52.40;;;;;;5033997;28;20052;-71
2023/05/29 06:04:32;;;;;;;14.98;7.15;;;16.20;51.80;;;;;;5034050;28;20386;-71
2023/05/29 06:06:57;;;;;;;15.73;7.35;;;16.20;51.80;;;;;;5034223;28;20032;-72
2023/05/29 06:09:24;;;;;;;16.42;7.72;;;16.10;52.60;;;;;;5033410;28;20496;-71
2023/05/29 06:11:50;;;;;;;10.82;6.82;;;15.90;53.60;;;;;;5033636;28;20030;-72
2023/05/29 06:14:16;;;;;;;13.55;6.95;;;15.80;54.40;;;;;;5033896;28;20525;-72
2023/05/29 06:16:42;;;;;;;12.98;7.13;;;15.80;54.70;;;;;;5033777;28;20417;-72
2023/05/29 06:19:08;;;;;;;12.55;7.82;;;15.90;54.40;;;;;;5033684;28;20498;-74
2023/05/29 06:21:34;;;;;;;12.38;6.72;;;16.10;54.10;;;;;;5032345;28;20072;-71
2023/05/29 06:23:59;;;;;;;11.30;6.60;;;16.10;54.00;;;;;;5033718;28;20502;-71
2023/05/29 06:26:26;;;;;;;12.82;7.40;;;16.00;53.80;;;;;;5032447;28;20501;-70
2023/05/29 06:28:52;;;;;;;13.45;7.18;;;16.00;54.90;;;;;;5033776;28;20021;-72
2023/05/29 06:31:18;;;;;;;10.60;6.75;;;16.10;54.90;;;;;;5033572;28;20065;-72
2023/05/29 06:33:44;;;;;;;14.10;8.63;;;16.20;54.90;;;;;;5033445;28;20056;-71
2023/05/29 06:36:10;;;;;;;15.15;8.73;;;16.10;55.10;;;;;;5033255;28;20228;-73
2023/05/29 06:38:36;;;;;;;13.15;7.38;;;16.10;55.00;;;;;;5033530;28;20522;-72
2023/05/29 06:41:01;;;;;;;11.82;6.88;;;16.20;55.00;;;;;;5033590;28;20462;-72
2023/05/29 06:43:28;;;;;;;15.40;7.53;;;16.30;55.00;;;;;;5033343;28;20045;-73
2023/05/29 06:45:53;;;;;;;11.73;6.85;;;16.30;54.50;;;;;;5033239;28;20029;-72
2023/05/29 06:48:19;;;;;;;16.98;7.65;;;16.50;54.30;;;;;;5033261;28;20045;-72
2023/05/29 06:50:45;;;;;;;22.80;8.77;;;16.60;54.30;;;;;;5033444;28;20022;-72
2023/05/29 06:53:11;;;;;;;13.80;7.15;;;16.90;56.90;;;;;;5033071;28;20029;-71
2023/05/29 06:55:36;;;;;;;14.05;7.05;;;17.30;54.70;;;;;;5035438;28;20072;-71
2023/05/29 06:58:02;;;;;;;12.18;7.45;;;17.40;51.70;;;;;;5033290;28;20491;-71
2023/05/29 07:00:28;;;;;;;10.05;6.13;;;17.40;52.40;;;;;;5033207;28;20513;-72
2023/05/29 07:02:54;;;;;;;10.93;6.47;;;17.70;52.00;;;;;;5033196;28;20026;-71
2023/05/29 07:05:19;;;;;;;12.60;6.50;;;17.80;52.10;;;;;;5032909;28;20029;-72
2023/05/29 07:07:45;;;;;;;10.50;6.10;;;18.10;51.40;;;;;;5033036;28;20053;-71
2023/05/29 07:10:10;;;;;;;14.25;6.75;;;18.30;50.40;;;;;;5032845;28;20048;-71
2023/05/29 07:12:36;;;;;;;10.95;6.25;;;18.40;48.70;;;;;;5032832;28;20083;-72
2023/05/29 07:15:02;;;;;;;18.92;12.00;;;18.40;50.30;;;;;;5034226;28;20099;-71
2023/05/29 07:17:27;;;;;;;14.43;8.27;;;18.60;49.60;;;;;;5033087;28;20029;-72
2023/05/29 07:19:54;;;;;;;14.10;6.80;;;18.70;49.50;;;;;;5033291;28;20033;-73
2023/05/29 07:22:19;;;;;;;16.63;6.90;;;18.90;48.40;;;;;;5034229;28;20068;-72
2023/05/29 07:24:45;;;;;;;13.25;6.75;;;18.80;48.90;;;;;;5032946;28;20447;-72
2023/05/29 07:27:11;;;;;;;12.60;6.35;;;19.00;49.00;;;;;;5031517;28;20076;-72
2023/05/29 07:29:36;;;;;;;11.68;6.60;;;19.00;48.70;;;;;;5031566;28;20040;-72
2023/05/29 07:32:02;;;;;;;11.13;6.28;;;19.10;48.70;;;;;;5031812;28;20018;-72
2023/05/29 07:34:27;;;;;;;9.00;6.30;;;19.10;48.80;;;;;;5031418;28;20474;-72
2023/05/29 07:37:04;;;;;;;14.35;6.57;;;19.30;48.50;;;;;;5031267;28;20034;-72
2023/05/29 07:39:30;;;;;;;11.52;6.35;;;19.40;48.40;;;;;;5031598;28;20026;-72
2023/05/29 07:41:56;;;;;;;14.05;7.15;;;19.40;47.60;;;;;;5031348;28;20022;-72
2023/05/29 07:44:22;;;;;;;11.48;7.13;;;19.40;47.30;;;;;;5031511;28;20382;-72
2023/05/29 07:46:47;;;;;;;12.85;8.20;;;18.90;48.60;;;;;;5033858;28;20462;-72
2023/05/29 07:49:13;;;;;;;12.48;7.97;;;18.70;50.30;;;;;;5036205;28;20045;-72
2023/05/29 07:51:38;;;;;;;13.82;7.53;;;18.30;51.50;;;;;;5036491;28;20029;-72
2023/05/29 07:54:05;;;;;;;15.48;7.03;;;18.20;52.00;;;;;;5036602;28;20355;-72
2023/05/29 07:56:30;;;;;;;11.57;7.07;;;18.30;52.20;;;;;;5036366;28;20398;-72
2023/05/29 07:58:56;;;;;;;11.77;7.10;;;18.40;52.20;;;;;;5036476;28;20017;-73
2023/05/29 08:01:23;;;;;;;11.73;6.85;;;18.30;53.10;;;;;;5035016;28;20561;-72
2023/05/29 08:03:48;;;;;;;12.30;6.70;;;18.40;53.00;;;;;;5036489;28;20021;-72
2023/05/29 08:06:14;;;;;;;11.80;6.25;;;18.50;53.10;;;;;;5036316;28;20035;-72
2023/05/29 08:08:39;;;;;;;12.57;7.10;;;18.60;53.40;;;;;;5036323;28;20108;-72
2023/05/29 08:11:05;;;;;;;14.85;7.40;;;18.80;52.50;;;;;;5035738;28;20515;-72
2023/05/29 08:13:31;;;;;;;12.43;6.50;;;19.00;52.10;;;;;;5035942;28;20109;-71
2023/05/29 08:15:56;;;;;;;11.02;6.45;;;18.90;52.20;;;;;;5036374;28;20072;-72
2023/05/29 08:18:25;;;;;;;10.77;6.50;;;19.00;52.00;;;;;;5036184;28;20040;-71
2023/05/29 08:20:52;;;;;;;12.18;6.70;;;19.20;52.30;;;;;;5036142;28;20025;-71
2023/05/29 08:23:18;;;;;;;13.43;7.05;;;19.40;52.20;;;;;;5036521;28;20033;-72
2023/05/29 08:25:43;;;;;;;9.50;5.95;;;19.60;51.10;;;;;;5034988;28;20018;-73
2023/05/29 08:28:09;;;;;;;9.15;6.13;;;19.70;51.40;;;;;;5036061;28;20036;-72
2023/05/29 08:30:34;;;;;;;14.55;5.93;;;19.90;50.80;;;;;;5036098;28;20053;-72
2023/05/29 08:33:00;;;;;;;8.80;5.93;;;20.20;50.20;;;;;;5034465;28;20513;-72
2023/05/29 08:35:26;;;;;;;9.70;5.90;;;20.40;48.40;;;;;;5035656;28;20032;-72
2023/05/29 08:37:51;;;;;;;10.00;5.70;;;20.40;48.40;;;;;;5035840;28;20417;-72
2023/05/29 08:40:17;;;;;;;11.38;6.32;;;20.50;48.40;;;;;;5035765;28;20029;-73
2023/05/29 08:43:12;;;;;;;11.13;6.35;;;20.70;47.70;;;;;;5035930;28;20026;-73
2023/05/29 08:45:43;;;;;;;10.43;5.45;;;20.80;47.60;;;;;;5035846;28;20022;-72
2023/05/29 08:48:10;;;;;;;9.85;6.10;;;21.00;47.10;;;;;;5035393;28;20045;-73
2023/05/29 08:50:40;;;;;;;11.35;5.55;;;21.20;45.60;;;;;;5035716;28;20017;-72
2023/05/29 08:53:05;;;;;;;10.90;5.93;;;21.30;44.50;;;;;;5035703;28;20036;-71
2023/05/29 08:55:32;;;;;;;9.75;5.57;;;21.40;44.50;;;;;;5035467;28;20033;-73
2023/05/29 08:57:58;;;;;;;9.05;5.53;;;21.40;44.20;;;;;;5034981;28;20421;-73
2023/05/29 09:00:28;;;;;;;9.70;5.45;;;21.40;44.90;;;;;;5035419;28;20032;-71
2023/05/29 09:02:55;;;;;;;9.82;5.78;;;21.40;44.90;;;;;;5035421;28;20435;-72
2023/05/29 09:05:21;;;;;;;10.90;6.55;;;21.20;45.40;;;;;;5035422;28;20053;-73
2023/05/29 09:07:49;;;;;;;8.77;5.70;;;21.30;44.60;;;;;;5035392;28;20017;-73
2023/05/29 09:10:15;;;;;;;12.40;5.88;;;21.40;44.60;;;;;;5035335;28;20116;-72
2023/05/29 09:12:41;;;;;;;11.57;5.65;;;21.50;44.80;;;;;;5035228;28;20120;-72
2023/05/29 09:15:27;;;;;;;13.25;5.85;;;21.40;44.50;;;;;;5035317;28;20025;-73
2023/05/29 09:17:54;;;;;;;14.00;6.05;;;21.30;45.20;;;;;;5035334;28;20040;-73
2023/05/29 09:20:24;;;;;;;10.57;5.88;;;21.40;46.10;;;;;;5035066;28;20017;-73
2023/05/29 09:22:58;;;;;;;11.70;6.55;;;21.40;45.30;;;;;;5035136;28;20543;-73
2023/05/29 09:25:26;;;;;;;10.68;7.00;;;21.20;45.30;;;;;;5033650;28;20028;-71
2023/05/29 09:27:56;;;;;;;11.73;5.97;;;21.40;45.00;;;;;;5034770;28;20021;-72
2023/05/29 09:30:39;;;;;;;10.18;6.28;;;21.40;43.70;;;;;;5034689;28;20025;-71
2023/05/29 09:33:07;;;;;;;8.43;5.70;;;21.70;44.60;;;;;;5035052;28;20026;-71
2023/05/29 09:35:34;;;;;;;11.95;6.28;;;21.90;43.30;;;;;;5034653;28;20022;-74
2023/05/29 09:38:01;;;;;;;10.00;5.75;;;21.90;41.90;;;;;;5033510;28;20033;-72
2023/05/29 09:40:29;;;;;;;9.82;5.35;;;21.70;43.60;;;;;;5034756;28;20057;-73
2023/05/29 09:42:54;;;;;;;9.90;5.75;;;21.80;42.90;;;;;;5034729;28;20060;-72
2023/05/29 09:45:21;;;;;;;9.35;5.97;;;22.00;42.70;;;;;;5034572;28;20022;-71
2023/05/29 09:47:48;;;;;;;7.70;5.18;;;22.30;41.70;;;;;;5034456;28;20014;-72
2023/05/29 09:50:20;;;;;;;11.52;6.10;;;22.50;42.10;;;;;;5034544;28;20037;-71
2023/05/29 09:52:46;;;;;;;8.27;5.55;;;22.70;40.90;;;;;;5034358;28;20029;-71
2023/05/29 09:55:17;;;;;;;8.60;5.53;;;22.70;40.70;;;;;;5034354;28;20029;-72
2023/05/29 09:57:46;;;;;;;11.07;5.93;;;22.70;40.40;;;;;;5033772;28;20151;-71
2023/05/29 10:00:12;;;;;;;10.00;5.93;;;22.80;40.70;;;;;;5032648;28;20026;-72
2023/05/29 10:02:39;;;;;;;7.72;5.00;;;23.20;40.70;;;;;;5034157;28;20083;-72
2023/05/29 10:05:08;;;;;;;10.95;5.43;;;23.30;39.00;;;;;;5034235;28;20028;-73
2023/05/29 10:07:38;;;;;;;10.45;4.95;;;23.40;39.00;;;;;;5034038;28;20022;-72
2023/05/29 10:10:07;;;;;;;11.00;5.47;;;23.60;39.70;;;;;;5034502;28;20056;-72
2023/05/29 10:12:36;;;;;;;10.50;5.55;;;23.80;39.40;;;;;;5034602;28;20025;-71
2023/05/29 10:15:05;;;;;;;10.85;6.18;;;23.90;37.70;;;;;;5032667;28;20094;-73
2023/05/29 10:17:34;;;;;;;9.13;5.55;;;24.10;38.50;;;;;;5033754;28;20103;-73
2023/05/29 10:20:05;;;;;;;8.45;5.43;;;24.30;35.80;;;;;;5033815;28;20483;-72
2023/05/29 10:22:32;;;;;;;8.00;4.88;;;24.40;30.70;;;;;;5034116;28;20112;-73
2023/05/29 10:24:59;;;;;;;7.32;4.32;;;24.60;28.10;;;;;;5033909;28;20109;-73
2023/05/29 10:27:25;;;;;;;8.43;4.95;;;24.60;28.20;;;;;;5033894;28;20048;-72
2023/05/29 10:30:06;;;;;;;5.70;4.07;;;24.70;26.70;;;;;;5033707;28;20032;-72
2023/05/29 10:33:10;;;;;;;5.57;3.78;;;24.80;25.30;;;;;;5033967;28;20040;-72
2023/05/29 10:36:16;;;;;;;5.70;4.03;;;24.80;26.20;;;;;;5033589;28;20087;-73
2023/05/29 10:38:44;;;;;;;7.47;4.68;;;24.80;26.10;;;;;;5033760;28;20037;-72
2023/05/29 10:41:29;;;;;;;8.25;4.32;;;24.90;25.50;;;;;;5033638;28;20358;-72
2023/05/29 10:43:56;;;;;;;9.70;4.50;;;25.10;25.90;;;;;;5033604;28;20065;-73
2023/05/29 10:46:41;;;;;;;6.15;4.07;;;25.20;24.90;;;;;;5033560;28;20756;-72
2023/05/29 10:49:16;;;;;;;6.57;4.93;;;25.20;25.80;;;;;;5033429;28;20049;-71
2023/05/29 10:51:42;;;;;;;8.13;4.60;;;25.10;25.00;;;;;;5033645;28;20112;-71
2023/05/29 10:54:07;;;;;;;6.57;4.18;;;25.30;25.70;;;;;;5033408;28;20446;-72
2023/05/29 10:56:33;;;;;;;12.55;4.60;;;25.40;25.60;;;;;;5033409;28;20029;-72
2023/05/29 10:59:03;;;;;;;5.80;3.85;;;25.60;23.90;;;;;;5033379;28;20022;-72
2023/05/29 11:01:30;;;;;;;6.03;3.85;;;25.70;25.50;;;;;;5033328;28;20049;-72
2023/05/29 11:04:17;;;;;;;6.43;4.05;;;25.90;24.50;;;;;;5033450;28;20029;-73
2023/05/29 11:06:43;;;;;;;5.90;3.75;;;26.00;24.10;;;;;;5033166;28;20120;-74
2023/05/29 11:09:30;;;;;;;10.38;4.43;;;25.80;22.80;;;;;;5033246;28;20026;-72
2023/05/29 11:12:12;;;;;;;8.63;4.32;;;25.90;23.50;;;;;;5033215;28;20091;-72
2023/05/29 11:14:46;;;;;;;7.88;4.18;;;26.10;23.50;;;;;;5033154;28;20413;-72
2023/05/29 11:17:45;;;;;;;8.02;3.75;;;26.30;24.30;;;;;;5032964;28;20048;-72
2023/05/29 11:20:28;;;;;;;6.20;3.95;;;26.40;24.10;;;;;;5024827;28;20033;-72
2023/05/29 11:23:00;;;;;;;5.72;3.90;;;26.40;24.20;;;;;;5033164;28;20025;-73
2023/05/29 11:25:26;;;;;;;7.97;4.05;;;26.60;23.70;;;;;;5031742;28;20032;-71
2023/05/29 11:27:52;;;;;;;5.82;3.83;;;26.70;23.40;;;;;;5032915;28;20393;-72
2023/05/29 11:30:21;;;;;;;7.85;4.32;;;26.80;22.60;;;;;;5032970;28;20097;-72
2023/05/29 11:32:48;;;;;;;5.43;3.63;;;26.80;22.50;;;;;;5032962;28;20026;-72
2023/05/29 11:35:14;;;;;;;6.55;3.83;;;27.00;22.40;;;;;;5033102;28;20025;-72
2023/05/29 11:37:43;;;;;;;8.23;4.22;;;27.10;23.20;;;;;;5032832;28;20042;-71
2023/05/29 11:40:09;;;;;;;5.22;3.45;;;26.90;22.20;;;;;;5032903;28;20462;-71
2023/05/29 11:42:35;;;;;;;8.55;4.32;;;27.10;21.50;;;;;;5032847;28;20386;-73
2023/05/29 11:45:19;;;;;;;7.35;3.63;;;27.20;21.40;;;;;;5032844;28;20076;-72
2023/05/29 11:47:56;;;;;;;3.95;3.55;;;27.30;23.20;;;;;;5032726;28;20381;-72
2023/05/29 11:50:25;;;;;;;6.85;4.13;;;27.30;23.10;;;;;;5032854;28;20037;-72
2023/05/29 11:52:51;;;;;;;6.20;4.30;;;27.50;23.80;;;;;;5032726;28;20421;-72
2023/05/29 11:55:21;;;;;;;5.30;3.67;;;27.60;23.70;;;;;;5032625;28;20037;-73
2023/05/29 11:57:47;;;;;;;6.28;3.83;;;27.70;21.50;;;;;;5032544;28;20044;-71
2023/05/29 12:00:18;;;;;;;7.70;3.95;;;27.70;21.80;;;;;;5032647;28;20084;-72
2023/05/29 12:02:46;;;;;;;7.13;3.45;;;27.70;21.40;;;;;;5032564;28;20021;-72
2023/05/29 12:05:14;;;;;;;5.10;3.42;;;27.80;21.80;;;;;;5032624;28;20039;-72
2023/05/29 12:07:50;;;;;;;6.93;4.10;;;27.90;20.70;;;;;;5031299;28;20018;-73
2023/05/29 12:10:18;;;;;;;6.45;4.28;;;28.10;21.90;;;;;;5032668;28;20018;-72
2023/05/29 12:12:50;;;;;;;8.25;4.50;;;28.30;21.20;;;;;;5032559;28;20017;-73
2023/05/29 12:15:17;;;;;;;5.57;3.95;;;28.20;24.20;;;;;;5032611;28;20496;-72
2023/05/29 12:17:43;;;;;;;6.88;4.20;;;28.20;23.50;;;;;;5032513;28;20041;-72
2023/05/29 12:20:11;;;;;;;8.07;4.43;;;28.30;21.40;;;;;;5032638;28;20037;-72
2023/05/29 12:22:38;;;;;;;10.98;4.40;;;28.40;22.60;;;;;;5032382;28;20478;-72
2023/05/29 12:25:08;;;;;;;7.03;4.70;;;28.40;26.00;;;;;;5032484;28;20048;-73
2023/05/29 12:27:41;;;;;;;14.13;6.95;;;28.20;25.10;;;;;;5032359;28;20034;-72
2023/05/29 12:30:11;;;;;;;7.68;5.20;;;27.30;26.40;;;;;;5032453;28;20021;-72
2023/05/29 12:32:40;;;;;;;6.05;4.47;;;27.50;26.70;;;;;;5033211;28;20034;-72
2023/05/29 12:35:19;;;;;;;6.30;4.30;;;27.40;27.50;;;;;;5036083;28;20381;-73
2023/05/29 12:37:46;;;;;;;8.38;4.80;;;27.50;27.20;;;;;;5035834;28;20071;-73
2023/05/29 12:40:20;;;;;;;5.85;4.25;;;27.60;27.30;;;;;;5036000;28;20496;-74
2023/05/29 12:42:47;;;;;;;8.90;4.80;;;27.80;26.10;;;;;;5035920;28;20036;-71
2023/05/29 12:45:14;;;;;;;6.90;4.40;;;27.60;26.50;;;;;;5035788;28;20026;-71